North Creek, Utah
Current Conditions -  °F | °C
As of 12:52 AM on Friday 19 Dec 2014 (Local Time) from KMLF Reporting Station
Clear Clear  
Wind Chill: 19°   Ceiling: Unl
Heat Index: 27°   Visibility: 10mi
Dew Point: 23°   Wind: 8mph
Humidity: 85%   Direction: 220°SW
Pressure: 30.18"   Gusts: NA
Location:  38.344°N, 112.579°W
Report Text: KMLF 190752Z AUTO 22007KT 10SM CLR M03/M05 A3018 RMK AO2 SLP226 T10281050 TSNO
Loading
Personal Weather Stations






























Interactive Weather Map New forecast layout! Learn more

10-Day Weather Forecast

Advertisements
Track Severe Weather on mobile